sensor_id;sensor_type;location;lat;lon;timestamp;temperature;humidity
1578;DHT22;57623;53.608;10.004;2023-03-01T00:02:25;0.70;99.90
1578;DHT22;57623;53.608;10.004;2023-03-01T00:04:53;0.70;99.90
1578;DHT22;57623;53.608;10.004;2023-03-01T00:07:21;0.80;99.90
1578;DHT22;57623;53.608;10.004;2023-03-01T00:09:49;0.80;99.90
1578;DHT22;57623;53.608;10.004;2023-03-01T00:12:17;0.70;99.90
1578;DHT22;57623;53.608;10.004;2023-03-01T00:14:46;0.80;99.90
1578;DHT22;57623;53.608;10.004;2023-03-01T00:17:14;0.80;99.90
1578;DHT22;57623;53.608;10.004;2023-03-01T00:19:42;0.70;99.90
1578;DHT22;57623;53.608;10.004;2023-03-01T00:22:10;0.80;99.90
1578;DHT22;57623;53.608;10.004;2023-03-01T00:24:38;0.70;99.90
1578;DHT22;57623;53.608;10.004;2023-03-01T00:27:06;0.70;99.90
1578;DHT22;57623;53.608;10.004;2023-03-01T00:29:34;0.70;99.90
1578;DHT22;57623;53.608;10.004;2023-03-01T00:32:04;0.70;99.90
1578;DHT22;57623;53.608;10.004;2023-03-01T00:34:32;0.60;99.90
1578;DHT22;57623;53.608;10.004;2023-03-01T00:37:00;0.60;99.90
1578;DHT22;57623;53.608;10.004;2023-03-01T00:39:32;0.60;99.90
1578;DHT22;57623;53.608;10.004;2023-03-01T00:42:00;0.60;99.90
1578;DHT22;57623;53.608;10.004;2023-03-01T00:44:28;0.60;99.90
1578;DHT22;57623;53.608;10.004;2023-03-01T00:46:56;0.50;99.90
1578;DHT22;57623;53.608;10.004;2023-03-01T00:49:25;0.50;99.90
1578;DHT22;57623;53.608;10.004;2023-03-01T00:51:54;0.50;99.90
1578;DHT22;57623;53.608;10.004;2023-03-01T00:54:22;0.50;99.90
1578;DHT22;57623;53.608;10.004;2023-03-01T00:56:50;0.50;99.90
1578;DHT22;57623;53.608;10.004;2023-03-01T00:59:18;0.50;99.90
1578;DHT22;57623;53.608;10.004;2023-03-01T01:01:45;0.50;99.90
1578;DHT22;57623;53.608;10.004;2023-03-01T01:04:14;0.50;99.90
1578;DHT22;57623;53.608;10.004;2023-03-01T01:06:44;0.40;99.90
1578;DHT22;57623;53.608;10.004;2023-03-01T01:09:15;0.40;99.90
1578;DHT22;57623;53.608;10.004;2023-03-01T01:11:45;0.40;99.90
1578;DHT22;57623;53.608;10.004;2023-03-01T01:14:13;0.40;99.90
1578;DHT22;57623;53.608;10.004;2023-03-01T01:16:42;0.30;99.90
1578;DHT22;57623;53.608;10.004;2023-03-01T01:19:10;0.40;99.90
1578;DHT22;57623;53.608;10.004;2023-03-01T01:21:40;0.40;99.90
1578;DHT22;57623;53.608;10.004;2023-03-01T01:24:11;0.40;99.90
1578;DHT22;57623;53.608;10.004;2023-03-01T01:26:39;0.40;99.90
1578;DHT22;57623;53.608;10.004;2023-03-01T01:29:07;0.40;99.90
1578;DHT22;57623;53.608;10.004;2023-03-01T01:31:36;0.40;99.90
1578;DHT22;57623;53.608;10.004;2023-03-01T01:34:06;0.30;99.90
1578;DHT22;57623;53.608;10.004;2023-03-01T01:36:36;0.30;99.90
1578;DHT22;57623;53.608;10.004;2023-03-01T01:39:04;0.30;99.90
1578;DHT22;57623;53.608;10.004;2023-03-01T01:41:33;0.30;99.90
1578;DHT22;57623;53.608;10.004;2023-03-01T01:44:16;0.30;99.90
1578;DHT22;57623;53.608;10.004;2023-03-01T01:46:49;0.20;99.90
1578;DHT22;57623;53.608;10.004;2023-03-01T01:49:24;0.30;99.90
1578;DHT22;57623;53.608;10.004;2023-03-01T01:51:59;0.20;99.90
1578;DHT22;57623;53.608;10.004;2023-03-01T01:54:32;0.30;99.90
1578;DHT22;57623;53.608;10.004;2023-03-01T01:57:06;0.30;99.90
1578;DHT22;57623;53.608;10.004;2023-03-01T01:59:35;0.30;99.90
1578;DHT22;57623;53.608;10.004;2023-03-01T02:02:05;0.30;99.90
1578;DHT22;57623;53.608;10.004;2023-03-01T02:04:33;0.30;99.90
1578;DHT22;57623;53.608;10.004;2023-03-01T02:07:05;0.30;99.90
1578;DHT22;57623;53.608;10.004;2023-03-01T02:09:35;0.20;99.90
1578;DHT22;57623;53.608;10.004;2023-03-01T02:12:05;0.30;99.90
1578;DHT22;57623;53.608;10.004;2023-03-01T02:14:33;0.30;99.90
1578;DHT22;57623;53.608;10.004;2023-03-01T02:17:01;0.20;99.90
1578;DHT22;57623;53.608;10.004;2023-03-01T02:19:42;0.30;99.90
1578;DHT22;57623;53.608;10.004;2023-03-01T02:22:20;0.20;99.90
1578;DHT22;57623;53.608;10.004;2023-03-01T02:25:03;0.20;99.90
1578;DHT22;57623;53.608;10.004;2023-03-01T02:27:42;0.30;99.90
1578;DHT22;57623;53.608;10.004;2023-03-01T02:30:13;0.20;99.90
1578;DHT22;57623;53.608;10.004;2023-03-01T02:32:42;0.20;99.90
1578;DHT22;57623;53.608;10.004;2023-03-01T02:35:11;0.20;99.90
1578;DHT22;57623;53.608;10.004;2023-03-01T02:37:40;0.20;99.90
1578;DHT22;57623;53.608;10.004;2023-03-01T02:40:10;0.30;99.90
1578;DHT22;57623;53.608;10.004;2023-03-01T02:42:45;0.30;99.90
1578;DHT22;57623;53.608;10.004;2023-03-01T02:45:17;0.30;99.90
1578;DHT22;57623;53.608;10.004;2023-03-01T02:47:45;0.30;99.90
1578;DHT22;57623;53.608;10.004;2023-03-01T02:50:22;0.40;99.90
1578;DHT22;57623;53.608;10.004;2023-03-01T02:52:56;0.40;99.90
1578;DHT22;57623;53.608;10.004;2023-03-01T02:55:25;0.30;99.90
1578;DHT22;57623;53.608;10.004;2023-03-01T02:57:55;0.40;99.90
1578;DHT22;57623;53.608;10.004;2023-03-01T03:00:29;0.40;99.90
1578;DHT22;57623;53.608;10.004;2023-03-01T03:02:59;0.40;99.90
1578;DHT22;57623;53.608;10.004;2023-03-01T03:05:29;0.40;99.90
1578;DHT22;57623;53.608;10.004;2023-03-01T03:07:58;0.40;99.90
1578;DHT22;57623;53.608;10.004;2023-03-01T03:10:28;0.40;99.90
1578;DHT22;57623;53.608;10.004;2023-03-01T03:12:59;0.40;99.90
1578;DHT22;57623;53.608;10.004;2023-03-01T03:15:29;0.40;99.90
1578;DHT22;57623;53.608;10.004;2023-03-01T03:17:58;0.40;99.90
1578;DHT22;57623;53.608;10.004;2023-03-01T03:20:27;0.40;99.90
1578;DHT22;57623;53.608;10.004;2023-03-01T03:22:57;0.40;99.90
1578;DHT22;57623;53.608;10.004;2023-03-01T03:25:27;0.30;99.90
1578;DHT22;57623;53.608;10.004;2023-03-01T03:27:56;0.30;99.90
1578;DHT22;57623;53.608;10.004;2023-03-01T03:30:26;0.30;99.90
1578;DHT22;57623;53.608;10.004;2023-03-01T03:32:58;0.30;99.90
1578;DHT22;57623;53.608;10.004;2023-03-01T03:35:28;0.30;99.90
1578;DHT22;57623;53.608;10.004;2023-03-01T03:37:58;0.30;99.90
1578;DHT22;57623;53.608;10.004;2023-03-01T03:40:30;0.40;99.90
1578;DHT22;57623;53.608;10.004;2023-03-01T03:42:59;0.40;99.90
1578;DHT22;57623;53.608;10.004;2023-03-01T03:45:27;0.40;99.90
1578;DHT22;57623;53.608;10.004;2023-03-01T03:47:57;0.50;99.90
1578;DHT22;57623;53.608;10.004;2023-03-01T03:50:25;0.50;99.90
1578;DHT22;57623;53.608;10.004;2023-03-01T03:52:53;0.50;99.90
1578;DHT22;57623;53.608;10.004;2023-03-01T03:55:21;0.50;99.90
1578;DHT22;57623;53.608;10.004;2023-03-01T03:57:49;0.50;99.90
1578;DHT22;57623;53.608;10.004;2023-03-01T04:00:20;0.60;99.90
1578;DHT22;57623;53.608;10.004;2023-03-01T04:02:48;0.60;99.90
1578;DHT22;57623;53.608;10.004;2023-03-01T04:05:19;0.60;99.90
1578;DHT22;57623;53.608;10.004;2023-03-01T04:07:46;0.60;99.90
1578;DHT22;57623;53.608;10.004;2023-03-01T04:10:16;0.60;99.90
1578;DHT22;57623;53.608;10.004;2023-03-01T04:12:44;0.70;99.90
1578;DHT22;57623;53.608;10.004;2023-03-01T04:15:12;0.70;99.90
1578;DHT22;57623;53.608;10.004;2023-03-01T04:17:41;0.70;99.90
1578;DHT22;57623;53.608;10.004;2023-03-01T04:20:11;0.70;99.90
1578;DHT22;57623;53.608;10.004;2023-03-01T04:22:40;0.70;99.90
1578;DHT22;57623;53.608;10.004;2023-03-01T04:25:08;0.70;99.90
1578;DHT22;57623;53.608;10.004;2023-03-01T04:27:40;0.70;99.90
1578;DHT22;57623;53.608;10.004;2023-03-01T04:30:10;0.80;99.90
1578;DHT22;57623;53.608;10.004;2023-03-01T04:32:38;0.80;99.90
1578;DHT22;57623;53.608;10.004;2023-03-01T04:35:06;0.80;99.90
1578;DHT22;57623;53.608;10.004;2023-03-01T04:37:34;0.80;99.90
1578;DHT22;57623;53.608;10.004;2023-03-01T04:40:05;0.90;99.90
1578;DHT22;57623;53.608;10.004;2023-03-01T04:42:43;0.80;99.90
1578;DHT22;57623;53.608;10.004;2023-03-01T04:45:11;0.90;99.90
1578;DHT22;57623;53.608;10.004;2023-03-01T04:47:41;0.90;99.90
1578;DHT22;57623;53.608;10.004;2023-03-01T04:50:11;0.90;99.90
1578;DHT22;57623;53.608;10.004;2023-03-01T04:52:40;0.90;99.90
1578;DHT22;57623;53.608;10.004;2023-03-01T04:55:10;1.00;99.90
1578;DHT22;57623;53.608;10.004;2023-03-01T04:57:38;1.00;99.90
1578;DHT22;57623;53.608;10.004;2023-03-01T05:00:10;1.00;99.90
1578;DHT22;57623;53.608;10.004;2023-03-01T05:02:49;1.00;99.90
1578;DHT22;57623;53.608;10.004;2023-03-01T05:05:25;1.00;99.90
1578;DHT22;57623;53.608;10.004;2023-03-01T05:07:58;1.00;99.90
1578;DHT22;57623;53.608;10.004;2023-03-01T05:10:29;1.00;99.90
1578;DHT22;57623;53.608;10.004;2023-03-01T05:12:58;1.10;99.90
1578;DHT22;57623;53.608;10.004;2023-03-01T05:15:26;1.10;99.90
1578;DHT22;57623;53.608;10.004;2023-03-01T05:17:57;1.10;99.90
1578;DHT22;57623;53.608;10.004;2023-03-01T05:20:26;1.10;99.90
1578;DHT22;57623;53.608;10.004;2023-03-01T05:22:56;1.10;99.90
1578;DHT22;57623;53.608;10.004;2023-03-01T05:25:26;1.10;99.90
1578;DHT22;57623;53.608;10.004;2023-03-01T05:27:59;1.10;99.90
1578;DHT22;57623;53.608;10.004;2023-03-01T05:30:31;1.10;99.90
1578;DHT22;57623;53.608;10.004;2023-03-01T05:33:00;1.20;99.90
1578;DHT22;57623;53.608;10.004;2023-03-01T05:35:28;1.20;99.90
1578;DHT22;57623;53.608;10.004;2023-03-01T05:37:59;1.20;99.90
1578;DHT22;57623;53.608;10.004;2023-03-01T05:40:28;1.30;99.90
1578;DHT22;57623;53.608;10.004;2023-03-01T05:42:56;1.20;99.90
1578;DHT22;57623;53.608;10.004;2023-03-01T05:45:26;1.30;99.90
1578;DHT22;57623;53.608;10.004;2023-03-01T05:47:54;1.30;99.90
1578;DHT22;57623;53.608;10.004;2023-03-01T05:50:24;1.30;99.90
1578;DHT22;57623;53.608;10.004;2023-03-01T05:52:57;1.40;99.90
1578;DHT22;57623;53.608;10.004;2023-03-01T05:55:28;1.40;99.90
1578;DHT22;57623;53.608;10.004;2023-03-01T05:57:58;1.40;99.90
1578;DHT22;57623;53.608;10.004;2023-03-01T06:00:27;1.40;99.90
1578;DHT22;57623;53.608;10.004;2023-03-01T06:02:56;1.50;99.90
1578;DHT22;57623;53.608;10.004;2023-03-01T06:05:24;1.40;99.90
1578;DHT22;57623;53.608;10.004;2023-03-01T06:07:53;1.40;99.90
1578;DHT22;57623;53.608;10.004;2023-03-01T06:10:22;1.40;99.90
1578;DHT22;57623;53.608;10.004;2023-03-01T06:12:51;1.40;99.90
1578;DHT22;57623;53.608;10.004;2023-03-01T06:15:20;1.30;99.90
1578;DHT22;57623;53.608;10.004;2023-03-01T06:17:48;1.40;99.90
1578;DHT22;57623;53.608;10.004;2023-03-01T06:20:18;1.40;99.90
1578;DHT22;57623;53.608;10.004;2023-03-01T06:22:47;1.30;99.90
1578;DHT22;57623;53.608;10.004;2023-03-01T06:25:18;1.30;99.90
1578;DHT22;57623;53.608;10.004;2023-03-01T06:27:47;1.30;99.90
1578;DHT22;57623;53.608;10.004;2023-03-01T06:30:19;1.30;99.90
1578;DHT22;57623;53.608;10.004;2023-03-01T06:32:47;1.30;99.90
1578;DHT22;57623;53.608;10.004;2023-03-01T06:35:16;1.30;99.90
1578;DHT22;57623;53.608;10.004;2023-03-01T06:37:45;1.30;99.90
1578;DHT22;57623;53.608;10.004;2023-03-01T06:40:14;1.30;99.90
1578;DHT22;57623;53.608;10.004;2023-03-01T06:42:43;1.30;99.90
1578;DHT22;57623;53.608;10.004;2023-03-01T06:45:19;1.40;99.90
1578;DHT22;57623;53.608;10.004;2023-03-01T06:47:47;1.40;99.90
1578;DHT22;57623;53.608;10.004;2023-03-01T06:50:16;1.40;99.90
1578;DHT22;57623;53.608;10.004;2023-03-01T06:52:44;1.50;99.90
1578;DHT22;57623;53.608;10.004;2023-03-01T06:55:12;1.50;99.90
1578;DHT22;57623;53.608;10.004;2023-03-01T06:57:40;1.60;99.90
1578;DHT22;57623;53.608;10.004;2023-03-01T07:00:09;1.60;99.90
1578;DHT22;57623;53.608;10.004;2023-03-01T07:02:38;1.60;99.90
1578;DHT22;57623;53.608;10.004;2023-03-01T07:05:07;1.60;99.90
1578;DHT22;57623;53.608;10.004;2023-03-01T07:07:35;1.60;99.90
1578;DHT22;57623;53.608;10.004;2023-03-01T07:10:03;1.70;99.90
1578;DHT22;57623;53.608;10.004;2023-03-01T07:12:32;1.70;99.90
1578;DHT22;57623;53.608;10.004;2023-03-01T07:15:00;1.80;99.90
1578;DHT22;57623;53.608;10.004;2023-03-01T07:17:28;1.80;99.90
1578;DHT22;57623;53.608;10.004;2023-03-01T07:19:57;1.90;99.90
1578;DHT22;57623;53.608;10.004;2023-03-01T07:22:25;1.90;99.90
1578;DHT22;57623;53.608;10.004;2023-03-01T07:24:53;1.90;99.90
1578;DHT22;57623;53.608;10.004;2023-03-01T07:27:21;2.00;99.90
1578;DHT22;57623;53.608;10.004;2023-03-01T07:29:49;2.00;99.90
1578;DHT22;57623;53.608;10.004;2023-03-01T07:32:17;2.10;99.90
1578;DHT22;57623;53.608;10.004;2023-03-01T07:34:45;2.10;99.90
1578;DHT22;57623;53.608;10.004;2023-03-01T07:37:15;2.10;99.90
1578;DHT22;57623;53.608;10.004;2023-03-01T07:39:43;2.20;99.90
1578;DHT22;57623;53.608;10.004;2023-03-01T07:42:11;2.20;99.90
1578;DHT22;57623;53.608;10.004;2023-03-01T07:44:39;2.20;99.90
1578;DHT22;57623;53.608;10.004;2023-03-01T07:47:07;2.20;99.90
1578;DHT22;57623;53.608;10.004;2023-03-01T07:49:34;2.30;99.90
1578;DHT22;57623;53.608;10.004;2023-03-01T07:52:03;2.30;99.90
1578;DHT22;57623;53.608;10.004;2023-03-01T07:54:32;2.30;99.90
1578;DHT22;57623;53.608;10.004;2023-03-01T07:57:00;2.40;99.90
1578;DHT22;57623;53.608;10.004;2023-03-01T07:59:28;2.50;99.90
1578;DHT22;57623;53.608;10.004;2023-03-01T08:01:56;2.50;99.90
1578;DHT22;57623;53.608;10.004;2023-03-01T08:04:25;2.60;99.90
1578;DHT22;57623;53.608;10.004;2023-03-01T08:06:53;2.70;99.90
1578;DHT22;57623;53.608;10.004;2023-03-01T08:09:21;2.70;99.90
1578;DHT22;57623;53.608;10.004;2023-03-01T08:11:51;2.80;99.90
1578;DHT22;57623;53.608;10.004;2023-03-01T08:14:19;2.80;99.90
1578;DHT22;57623;53.608;10.004;2023-03-01T08:16:49;2.90;99.90
1578;DHT22;57623;53.608;10.004;2023-03-01T08:19:17;2.90;99.90
1578;DHT22;57623;53.608;10.004;2023-03-01T08:21:45;2.90;99.90
1578;DHT22;57623;53.608;10.004;2023-03-01T08:24:13;3.00;99.90
1578;DHT22;57623;53.608;10.004;2023-03-01T08:26:41;3.00;99.90
1578;DHT22;57623;53.608;10.004;2023-03-01T08:29:10;3.10;99.90
1578;DHT22;57623;53.608;10.004;2023-03-01T08:31:39;3.10;99.90
1578;DHT22;57623;53.608;10.004;2023-03-01T08:34:09;3.20;99.90
1578;DHT22;57623;53.608;10.004;2023-03-01T08:36:39;3.20;99.90
1578;DHT22;57623;53.608;10.004;2023-03-01T08:39:08;3.30;99.90
1578;DHT22;57623;53.608;10.004;2023-03-01T08:41:38;3.40;99.90
1578;DHT22;57623;53.608;10.004;2023-03-01T08:44:06;3.40;99.90
1578;DHT22;57623;53.608;10.004;2023-03-01T08:46:37;3.50;99.90
1578;DHT22;57623;53.608;10.004;2023-03-01T08:49:06;3.50;99.90
1578;DHT22;57623;53.608;10.004;2023-03-01T08:51:34;3.60;99.90
1578;DHT22;57623;53.608;10.004;2023-03-01T08:54:04;3.70;99.90
1578;DHT22;57623;53.608;10.004;2023-03-01T08:56:33;3.70;99.90
1578;DHT22;57623;53.608;10.004;2023-03-01T08:59:01;3.80;99.90
1578;DHT22;57623;53.608;10.004;2023-03-01T09:01:29;3.80;99.90
1578;DHT22;57623;53.608;10.004;2023-03-01T09:03:58;3.80;99.90
1578;DHT22;57623;53.608;10.004;2023-03-01T09:06:27;3.90;99.90
1578;DHT22;57623;53.608;10.004;2023-03-01T09:08:58;3.90;99.90
1578;DHT22;57623;53.608;10.004;2023-03-01T09:11:26;4.00;99.90
1578;DHT22;57623;53.608;10.004;2023-03-01T09:13:54;4.00;99.90
1578;DHT22;57623;53.608;10.004;2023-03-01T09:16:24;4.10;99.90
1578;DHT22;57623;53.608;10.004;2023-03-01T09:18:53;4.10;99.90
1578;DHT22;57623;53.608;10.004;2023-03-01T09:21:23;4.10;99.90
1578;DHT22;57623;53.608;10.004;2023-03-01T09:24:06;4.10;99.90
1578;DHT22;57623;53.608;10.004;2023-03-01T09:26:34;4.20;99.90
1578;DHT22;57623;53.608;10.004;2023-03-01T09:29:02;4.20;99.90
1578;DHT22;57623;53.608;10.004;2023-03-01T09:31:30;4.30;99.90
1578;DHT22;57623;53.608;10.004;2023-03-01T09:33:58;4.30;99.90
1578;DHT22;57623;53.608;10.004;2023-03-01T09:36:27;4.40;99.90
1578;DHT22;57623;53.608;10.004;2023-03-01T09:38:57;4.40;99.90
1578;DHT22;57623;53.608;10.004;2023-03-01T09:41:45;4.50;99.90
1578;DHT22;57623;53.608;10.004;2023-03-01T09:44:20;4.50;99.90
1578;DHT22;57623;53.608;10.004;2023-03-01T09:46:49;4.60;99.90
1578;DHT22;57623;53.608;10.004;2023-03-01T09:49:20;4.60;99.90
1578;DHT22;57623;53.608;10.004;2023-03-01T09:51:55;4.70;99.90
1578;DHT22;57623;53.608;10.004;2023-03-01T09:54:24;4.70;99.90
1578;DHT22;57623;53.608;10.004;2023-03-01T09:57:01;4.80;99.90
1578;DHT22;57623;53.608;10.004;2023-03-01T09:59:39;4.90;99.90
1578;DHT22;57623;53.608;10.004;2023-03-01T10:02:23;4.90;99.90
1578;DHT22;57623;53.608;10.004;2023-03-01T10:04:55;5.00;99.90
1578;DHT22;57623;53.608;10.004;2023-03-01T10:07:32;5.10;99.90
1578;DHT22;57623;53.608;10.004;2023-03-01T10:10:07;5.10;99.90
1578;DHT22;57623;53.608;10.004;2023-03-01T10:12:39;5.20;99.90
1578;DHT22;57623;53.608;10.004;2023-03-01T10:15:13;5.20;99.90
1578;DHT22;57623;53.608;10.004;2023-03-01T10:17:46;5.20;99.90
1578;DHT22;57623;53.608;10.004;2023-03-01T10:20:20;5.30;99.90
1578;DHT22;57623;53.608;10.004;2023-03-01T10:22:51;5.30;99.90
1578;DHT22;57623;53.608;10.004;2023-03-01T10:25:36;5.30;99.90
1578;DHT22;57623;53.608;10.004;2023-03-01T10:28:16;5.30;99.90
1578;DHT22;57623;53.608;10.004;2023-03-01T10:30:45;5.40;99.90
1578;DHT22;57623;53.608;10.004;2023-03-01T10:33:17;5.40;99.90
1578;DHT22;57623;53.608;10.004;2023-03-01T10:35:46;5.50;99.90
1578;DHT22;57623;53.608;10.004;2023-03-01T10:38:17;5.60;99.90
1578;DHT22;57623;53.608;10.004;2023-03-01T10:40:52;5.70;99.90
1578;DHT22;57623;53.608;10.004;2023-03-01T10:43:20;5.80;99.90
1578;DHT22;57623;53.608;10.004;2023-03-01T10:45:49;5.90;99.90
1578;DHT22;57623;53.608;10.004;2023-03-01T10:48:19;6.00;99.90
1578;DHT22;57623;53.608;10.004;2023-03-01T10:50:51;6.10;99.90
1578;DHT22;57623;53.608;10.004;2023-03-01T10:53:34;6.30;99.90
1578;DHT22;57623;53.608;10.004;2023-03-01T10:56:05;6.40;99.90
1578;DHT22;57623;53.608;10.004;2023-03-01T10:58:34;6.50;99.90
1578;DHT22;57623;53.608;10.004;2023-03-01T11:01:04;6.60;99.90
1578;DHT22;57623;53.608;10.004;2023-03-01T11:03:34;6.60;99.90
1578;DHT22;57623;53.608;10.004;2023-03-01T11:06:05;6.70;99.90
1578;DHT22;57623;53.608;10.004;2023-03-01T11:08:41;6.80;99.90
1578;DHT22;57623;53.608;10.004;2023-03-01T11:11:25;6.90;99.90
1578;DHT22;57623;53.608;10.004;2023-03-01T11:14:00;7.00;99.90
1578;DHT22;57623;53.608;10.004;2023-03-01T11:16:35;7.10;99.90
1578;DHT22;57623;53.608;10.004;2023-03-01T11:19:19;7.20;99.90
1578;DHT22;57623;53.608;10.004;2023-03-01T11:21:54;7.30;99.90
1578;DHT22;57623;53.608;10.004;2023-03-01T11:24:29;7.40;99.90
1578;DHT22;57623;53.608;10.004;2023-03-01T11:27:03;7.50;99.90
1578;DHT22;57623;53.608;10.004;2023-03-01T11:29:35;7.60;99.90
1578;DHT22;57623;53.608;10.004;2023-03-01T11:32:15;7.70;99.90
1578;DHT22;57623;53.608;10.004;2023-03-01T11:34:47;7.80;99.90
1578;DHT22;57623;53.608;10.004;2023-03-01T11:37:22;7.90;99.90
1578;DHT22;57623;53.608;10.004;2023-03-01T11:39:59;8.00;99.90
1578;DHT22;57623;53.608;10.004;2023-03-01T11:42:42;8.10;99.90
1578;DHT22;57623;53.608;10.004;2023-03-01T11:45:12;8.20;99.90
1578;DHT22;57623;53.608;10.004;2023-03-01T11:50:43;8.50;99.90
1578;DHT22;57623;53.608;10.004;2023-03-01T11:56:16;8.70;99.90
1578;DHT22;57623;53.608;10.004;2023-03-01T11:59:15;8.90;99.90
1578;DHT22;57623;53.608;10.004;2023-03-01T12:02:07;9.00;99.90
1578;DHT22;57623;53.608;10.004;2023-03-01T12:05:12;9.20;99.90
1578;DHT22;57623;53.608;10.004;2023-03-01T12:07:49;9.50;99.90
1578;DHT22;57623;53.608;10.004;2023-03-01T12:10:27;9.70;99.90
1578;DHT22;57623;53.608;10.004;2023-03-01T12:13:18;10.00;99.90
1578;DHT22;57623;53.608;10.004;2023-03-01T12:16:00;10.30;99.90
1578;DHT22;57623;53.608;10.004;2023-03-01T12:18:56;10.90;99.90
1578;DHT22;57623;53.608;10.004;2023-03-01T12:21:35;11.60;99.90
1578;DHT22;57623;53.608;10.004;2023-03-01T12:27:26;13.50;99.90
1578;DHT22;57623;53.608;10.004;2023-03-01T12:30:05;15.70;99.90
1578;DHT22;57623;53.608;10.004;2023-03-01T12:32:46;17.70;75.70
1578;DHT22;57623;53.608;10.004;2023-03-01T12:35:39;19.50;58.60
1578;DHT22;57623;53.608;10.004;2023-03-01T12:38:25;21.60;49.80
1578;DHT22;57623;53.608;10.004;2023-03-01T12:41:24;23.90;44.10
1578;DHT22;57623;53.608;10.004;2023-03-01T12:44:04;26.30;37.60
1578;DHT22;57623;53.608;10.004;2023-03-01T12:46:49;27.80;32.00
1578;DHT22;57623;53.608;10.004;2023-03-01T12:49:23;28.60;30.00
1578;DHT22;57623;53.608;10.004;2023-03-01T12:51:57;29.30;28.60
1578;DHT22;57623;53.608;10.004;2023-03-01T12:54:29;29.90;27.10
1578;DHT22;57623;53.608;10.004;2023-03-01T12:57:03;30.20;27.40
1578;DHT22;57623;53.608;10.004;2023-03-01T12:59:38;30.30;25.90
1578;DHT22;57623;53.608;10.004;2023-03-01T13:02:16;30.30;25.90
1578;DHT22;57623;53.608;10.004;2023-03-01T13:05:07;30.20;25.40
1578;DHT22;57623;53.608;10.004;2023-03-01T13:07:45;30.10;25.20
1578;DHT22;57623;53.608;10.004;2023-03-01T13:10:24;30.20;24.70
1578;DHT22;57623;53.608;10.004;2023-03-01T13:13:01;30.10;24.10
1578;DHT22;57623;53.608;10.004;2023-03-01T13:15:34;30.10;24.30
1578;DHT22;57623;53.608;10.004;2023-03-01T13:18:28;29.80;24.30
1578;DHT22;57623;53.608;10.004;2023-03-01T13:20:58;29.10;25.70
1578;DHT22;57623;53.608;10.004;2023-03-01T13:23:30;28.80;26.00
1578;DHT22;57623;53.608;10.004;2023-03-01T13:26:07;28.30;25.80
1578;DHT22;57623;53.608;10.004;2023-03-01T13:34:55;27.80;26.30
1578;DHT22;57623;53.608;10.004;2023-03-01T13:37:34;27.60;26.90
1578;DHT22;57623;53.608;10.004;2023-03-01T13:42:49;27.90;26.20
1578;DHT22;57623;53.608;10.004;2023-03-01T13:45:37;27.70;26.10
1578;DHT22;57623;53.608;10.004;2023-03-01T13:48:10;27.40;26.80
1578;DHT22;57623;53.608;10.004;2023-03-01T13:50:47;27.10;27.00
1578;DHT22;57623;53.608;10.004;2023-03-01T13:53:19;26.70;27.10
1578;DHT22;57623;53.608;10.004;2023-03-01T13:55:49;26.60;27.80
1578;DHT22;57623;53.608;10.004;2023-03-01T13:58:23;25.90;28.10
1578;DHT22;57623;53.608;10.004;2023-03-01T14:00:57;25.00;28.20
1578;DHT22;57623;53.608;10.004;2023-03-01T14:03:27;23.70;28.70
1578;DHT22;57623;53.608;10.004;2023-03-01T14:06:03;23.00;30.00
1578;DHT22;57623;53.608;10.004;2023-03-01T14:08:42;21.80;31.80
1578;DHT22;57623;53.608;10.004;2023-03-01T14:11:39;20.50;32.50
1578;DHT22;57623;53.608;10.004;2023-03-01T14:14:39;19.20;35.00
1578;DHT22;57623;53.608;10.004;2023-03-01T14:17:35;18.30;36.80
1578;DHT22;57623;53.608;10.004;2023-03-01T14:20:12;17.80;38.20
1578;DHT22;57623;53.608;10.004;2023-03-01T14:22:44;17.40;37.90
1578;DHT22;57623;53.608;10.004;2023-03-01T14:25:30;16.90;39.30
1578;DHT22;57623;53.608;10.004;2023-03-01T14:28:10;16.40;40.60
1578;DHT22;57623;53.608;10.004;2023-03-01T14:30:43;16.20;41.60
1578;DHT22;57623;53.608;10.004;2023-03-01T14:33:26;15.90;43.40
1578;DHT22;57623;53.608;10.004;2023-03-01T14:35:57;15.30;46.60
1578;DHT22;57623;53.608;10.004;2023-03-01T14:38:32;14.80;50.60
1578;DHT22;57623;53.608;10.004;2023-03-01T14:41:03;14.30;62.70
1578;DHT22;57623;53.608;10.004;2023-03-01T14:43:33;14.00;80.60
1578;DHT22;57623;53.608;10.004;2023-03-01T14:46:01;13.70;97.40
1578;DHT22;57623;53.608;10.004;2023-03-01T14:48:30;13.40;99.90
1578;DHT22;57623;53.608;10.004;2023-03-01T14:50:58;13.20;99.90
1578;DHT22;57623;53.608;10.004;2023-03-01T14:53:29;13.00;99.90
1578;DHT22;57623;53.608;10.004;2023-03-01T14:56:14;12.80;99.90
1578;DHT22;57623;53.608;10.004;2023-03-01T14:58:42;12.50;99.90
1578;DHT22;57623;53.608;10.004;2023-03-01T15:01:14;12.40;99.90
1578;DHT22;57623;53.608;10.004;2023-03-01T15:03:45;12.20;99.90
1578;DHT22;57623;53.608;10.004;2023-03-01T15:06:16;12.10;99.90
1578;DHT22;57623;53.608;10.004;2023-03-01T15:08:48;11.90;99.90
1578;DHT22;57623;53.608;10.004;2023-03-01T15:11:21;11.80;99.90
1578;DHT22;57623;53.608;10.004;2023-03-01T15:13:51;11.70;99.90
1578;DHT22;57623;53.608;10.004;2023-03-01T15:16:23;11.50;99.90
1578;DHT22;57623;53.608;10.004;2023-03-01T15:18:53;11.40;99.90
1578;DHT22;57623;53.608;10.004;2023-03-01T15:21:24;11.30;99.90
1578;DHT22;57623;53.608;10.004;2023-03-01T15:23:59;11.20;99.90
1578;DHT22;57623;53.608;10.004;2023-03-01T15:26:31;11.10;99.90
1578;DHT22;57623;53.608;10.004;2023-03-01T15:29:01;11.00;99.90
1578;DHT22;57623;53.608;10.004;2023-03-01T15:31:32;10.90;99.90
1578;DHT22;57623;53.608;10.004;2023-03-01T15:34:21;10.70;99.90
1578;DHT22;57623;53.608;10.004;2023-03-01T15:36:51;10.70;99.90
1578;DHT22;57623;53.608;10.004;2023-03-01T15:39:47;10.50;99.90
1578;DHT22;57623;53.608;10.004;2023-03-01T15:42:36;10.40;99.90
1578;DHT22;57623;53.608;10.004;2023-03-01T15:45:09;10.30;99.90
1578;DHT22;57623;53.608;10.004;2023-03-01T15:47:39;10.20;99.90
1578;DHT22;57623;53.608;10.004;2023-03-01T15:50:16;10.20;99.90
1578;DHT22;57623;53.608;10.004;2023-03-01T15:52:45;10.10;99.90
1578;DHT22;57623;53.608;10.004;2023-03-01T15:55:18;10.00;99.90
1578;DHT22;57623;53.608;10.004;2023-03-01T15:57:47;9.90;99.90
1578;DHT22;57623;53.608;10.004;2023-03-01T16:00:16;9.80;99.90
1578;DHT22;57623;53.608;10.004;2023-03-01T16:02:45;9.70;99.90
1578;DHT22;57623;53.608;10.004;2023-03-01T16:05:18;9.60;99.90
1578;DHT22;57623;53.608;10.004;2023-03-01T16:07:47;9.50;99.90
1578;DHT22;57623;53.608;10.004;2023-03-01T16:10:17;9.40;99.90
1578;DHT22;57623;53.608;10.004;2023-03-01T16:12:45;9.30;99.90
1578;DHT22;57623;53.608;10.004;2023-03-01T16:15:18;9.20;99.90
1578;DHT22;57623;53.608;10.004;2023-03-01T16:17:46;9.10;99.90
1578;DHT22;57623;53.608;10.004;2023-03-01T16:20:15;9.00;99.90
1578;DHT22;57623;53.608;10.004;2023-03-01T16:22:53;8.90;99.90
1578;DHT22;57623;53.608;10.004;2023-03-01T16:25:23;8.80;99.90
1578;DHT22;57623;53.608;10.004;2023-03-01T16:27:51;8.70;99.90
1578;DHT22;57623;53.608;10.004;2023-03-01T16:30:20;8.70;99.90
1578;DHT22;57623;53.608;10.004;2023-03-01T16:32:50;8.60;99.90